createdAt,value
2022-09-02T00:02:01.223Z,14.56
2022-09-02T00:04:32.211Z,14.52
2022-09-02T00:07:02.672Z,14.54
2022-09-02T00:09:33.153Z,14.56
2022-09-02T00:12:03.685Z,14.61
2022-09-02T00:14:38.161Z,14.63
2022-09-02T00:17:08.803Z,14.64
2022-09-02T00:19:39.281Z,14.64
2022-09-02T00:22:09.912Z,14.61
2022-09-02T00:24:40.712Z,14.63
2022-09-02T00:27:11.084Z,14.66
2022-09-02T00:29:41.472Z,14.69
2022-09-02T00:32:11.996Z,14.61
2022-09-02T00:34:42.654Z,14.52
2022-09-02T00:37:14.642Z,14.45
2022-09-02T00:39:45.642Z,14.43
2022-09-02T00:42:18.653Z,14.45
2022-09-02T00:44:49.323Z,14.46
2022-09-02T00:47:19.940Z,14.51
2022-09-02T00:49:55.339Z,14.56
2022-09-02T00:52:31.242Z,14.55
2022-09-02T00:55:06.982Z,14.43
2022-09-02T00:57:52.747Z,14.36
2022-09-02T01:00:34.444Z,14.36
2022-09-02T01:03:08.882Z,14.35
2022-09-02T01:05:45.313Z,14.25
2022-09-02T01:08:21.261Z,14.20
2022-09-02T01:10:52.651Z,14.25
2022-09-02T01:13:26.532Z,14.26
2022-09-02T01:16:23.532Z,14.19
2022-09-02T01:18:58.613Z,14.22
2022-09-02T01:21:29.802Z,14.27
2022-09-02T01:24:01.392Z,14.30
2022-09-02T01:26:34.066Z,14.28
2022-09-02T01:29:04.688Z,14.24
2022-09-02T01:31:35.168Z,14.25
2022-09-02T01:34:07.002Z,14.29
2022-09-02T01:36:41.311Z,14.21
2022-09-02T01:39:14.111Z,14.13
2022-09-02T01:41:44.751Z,14.15
2022-09-02T01:44:16.588Z,14.12
2022-09-02T01:46:47.598Z,14.08
2022-09-02T01:49:20.439Z,14.10
2022-09-02T01:51:51.662Z,14.10
2022-09-02T01:54:22.282Z,14.05
2022-09-02T01:56:53.942Z,13.98
2022-09-02T01:59:26.542Z,13.96
2022-09-02T02:01:57.045Z,13.99
2022-09-02T02:04:28.065Z,14.03
2022-09-02T02:06:59.974Z,14.06
2022-09-02T02:09:30.802Z,14.04
2022-09-02T02:12:01.597Z,14.03
2022-09-02T02:14:33.182Z,14.00
2022-09-02T02:17:03.722Z,13.99
2022-09-02T02:19:34.262Z,14.01
2022-09-02T02:22:05.381Z,14.05
2022-09-02T02:24:37.051Z,14.05
2022-09-02T02:27:08.012Z,14.03
2022-09-02T02:29:38.562Z,14.04
2022-09-02T02:32:09.472Z,14.01
2022-09-02T02:34:40.833Z,13.98
2022-09-02T02:37:12.711Z,13.97
2022-09-02T02:39:44.845Z,13.98
2022-09-02T02:42:17.713Z,13.98
2022-09-02T02:44:51.456Z,13.99
2022-09-02T02:47:24.701Z,14.00
2022-09-02T02:49:55.524Z,13.98
2022-09-02T02:52:26.004Z,13.92
2022-09-02T02:54:56.972Z,13.89
2022-09-02T02:57:27.463Z,13.91
2022-09-02T02:59:58.492Z,13.92
2022-09-02T03:02:33.724Z,13.94
2022-09-02T03:05:08.149Z,13.97
2022-09-02T03:07:41.194Z,14.02
2022-09-02T03:10:13.521Z,14.03
2022-09-02T03:12:45.322Z,13.93
2022-09-02T03:15:18.781Z,13.87
2022-09-02T03:17:50.871Z,13.84
2022-09-02T03:20:23.208Z,13.81
2022-09-02T03:22:59.946Z,13.82
2022-09-02T03:25:35.997Z,13.84
2022-09-02T03:28:12.350Z,13.83
2022-09-02T03:30:43.901Z,13.71
2022-09-02T03:33:14.754Z,13.56
2022-09-02T03:35:46.899Z,13.50
2022-09-02T03:38:18.734Z,13.50
2022-09-02T03:40:51.884Z,13.49
2022-09-02T03:43:23.072Z,13.49
2022-09-02T03:45:54.271Z,13.46
2022-09-02T03:48:25.050Z,13.39
2022-09-02T03:50:56.479Z,13.38
2022-09-02T03:53:27.264Z,13.37
2022-09-02T03:56:05.701Z,13.38
2022-09-02T03:58:37.543Z,13.40
2022-09-02T04:01:09.110Z,13.33
2022-09-02T04:03:39.810Z,13.24
2022-09-02T04:06:15.945Z,13.21
2022-09-02T04:08:47.690Z,13.21
2022-09-02T04:11:23.551Z,13.23
2022-09-02T04:13:55.710Z,13.26
2022-09-02T04:16:29.360Z,13.30
2022-09-02T04:19:07.014Z,13.31
2022-09-02T04:21:40.228Z,13.31
2022-09-02T04:24:13.132Z,13.29
2022-09-02T04:26:47.434Z,13.21
2022-09-02T04:29:21.422Z,13.16
2022-09-02T04:31:53.352Z,13.15
2022-09-02T04:34:25.241Z,13.18
2022-09-02T04:36:57.273Z,13.21
2022-09-02T04:39:27.860Z,13.22
2022-09-02T04:41:58.341Z,13.25
2022-09-02T04:44:29.101Z,13.17
2022-09-02T04:47:00.002Z,13.06
2022-09-02T04:49:33.172Z,13.00
2022-09-02T04:52:03.902Z,13.01
2022-09-02T04:54:36.073Z,13.04
2022-09-02T04:57:08.413Z,13.10
2022-09-02T04:59:39.401Z,13.14
2022-09-02T05:02:13.013Z,13.17
2022-09-02T05:04:43.991Z,13.20
2022-09-02T05:07:21.071Z,13.24
2022-09-02T05:09:52.091Z,13.26
2022-09-02T05:12:23.011Z,13.29
2022-09-02T05:14:59.872Z,13.32
2022-09-02T05:17:32.309Z,13.32
2022-09-02T05:20:06.124Z,13.33
2022-09-02T05:22:38.480Z,13.35
2022-09-02T05:25:10.067Z,13.41
2022-09-02T05:27:40.853Z,13.44
2022-09-02T05:30:11.730Z,13.46
2022-09-02T05:32:42.753Z,13.48
2022-09-02T05:35:13.592Z,13.50
2022-09-02T05:37:46.271Z,13.51
2022-09-02T05:40:17.091Z,13.53
2022-09-02T05:42:53.651Z,13.54
2022-09-02T05:45:28.079Z,13.56
2022-09-02T05:47:58.579Z,13.57
2022-09-02T05:50:31.896Z,13.56
2022-09-02T05:53:03.201Z,13.59
2022-09-02T05:55:33.852Z,13.63
2022-09-02T05:58:06.008Z,13.64
2022-09-02T06:00:38.334Z,13.63
2022-09-02T06:03:11.217Z,13.67
2022-09-02T06:05:43.321Z,13.72
2022-09-02T06:08:25.222Z,13.75
2022-09-02T06:10:55.940Z,13.77
2022-09-02T06:13:32.441Z,13.79
2022-09-02T06:16:03.395Z,13.81
2022-09-02T06:18:36.476Z,13.83
2022-09-02T06:21:08.996Z,13.87
2022-09-02T06:24:01.073Z,13.93
2022-09-02T06:26:32.664Z,13.99
2022-09-02T06:29:05.017Z,14.03
2022-09-02T06:31:37.063Z,14.08
2022-09-02T06:34:08.300Z,14.14
2022-09-02T06:36:38.992Z,14.18
2022-09-02T06:39:12.532Z,14.23
2022-09-02T06:41:47.242Z,14.31
2022-09-02T06:44:19.398Z,14.39
2022-09-02T06:47:05.722Z,14.48
2022-09-02T06:49:38.174Z,14.59
2022-09-02T06:52:16.171Z,14.71
2022-09-02T06:54:49.516Z,14.83
2022-09-02T06:57:20.243Z,14.97
2022-09-02T06:59:53.024Z,15.12
2022-09-02T07:03:08.883Z,15.27
2022-09-02T07:05:39.646Z,15.45
2022-09-02T07:08:10.717Z,15.59
2022-09-02T07:10:43.061Z,15.71
2022-09-02T07:13:42.885Z,15.86
2022-09-02T07:16:15.661Z,16.04
2022-09-02T07:18:58.106Z,16.17
2022-09-02T07:21:33.816Z,16.34
2022-09-02T07:24:05.192Z,16.53
2022-09-02T07:26:47.554Z,16.74
2022-09-02T07:29:25.852Z,16.94
2022-09-02T07:31:57.616Z,17.13
2022-09-02T07:34:35.938Z,17.31
2022-09-02T07:37:11.841Z,17.48
2022-09-02T07:39:44.459Z,17.64
2022-09-02T07:42:16.236Z,17.77
2022-09-02T07:44:47.196Z,17.89
2022-09-02T07:47:18.851Z,18.03
2022-09-02T07:52:41.022Z,18.28
2022-09-02T07:55:15.642Z,18.41
2022-09-02T07:57:48.243Z,18.52
2022-09-02T08:00:21.584Z,18.63
2022-09-02T08:03:15.823Z,18.73
2022-09-02T08:06:33.727Z,18.90
2022-09-02T08:09:28.299Z,19.08
2022-09-02T08:11:59.537Z,19.17
2022-09-02T08:14:31.393Z,19.29
2022-09-02T08:17:02.937Z,19.42
2022-09-02T08:19:34.328Z,19.47
2022-09-02T08:22:07.429Z,19.47
2022-09-02T08:24:38.397Z,19.48
2022-09-02T08:27:08.945Z,19.50
2022-09-02T08:29:40.844Z,19.56
2022-09-02T08:32:11.609Z,19.62
2022-09-02T08:34:42.356Z,19.73
2022-09-02T08:37:13.195Z,19.88
2022-09-02T08:39:43.688Z,19.99
2022-09-02T08:42:22.589Z,20.11
2022-09-02T08:45:01.683Z,20.27
2022-09-02T08:47:35.383Z,20.41
2022-09-02T08:50:15.213Z,20.53
2022-09-02T08:53:30.695Z,20.62
2022-09-02T08:56:03.160Z,20.83
2022-09-02T08:58:47.524Z,20.97
2022-09-02T09:01:32.109Z,21.11
2022-09-02T09:04:19.084Z,21.12
2022-09-02T09:10:22.494Z,21.29
2022-09-02T09:13:30.283Z,21.39
2022-09-02T09:16:16.514Z,21.47
2022-09-02T09:18:54.463Z,21.58
2022-09-02T09:24:06.138Z,21.84
2022-09-02T09:26:41.688Z,22.00
2022-09-02T09:29:13.322Z,22.11
2022-09-02T09:31:48.370Z,22.14
2022-09-02T09:34:18.945Z,22.21
2022-09-02T09:36:56.324Z,22.21
2022-09-02T09:39:32.536Z,22.15
2022-09-02T09:42:15.829Z,22.09
2022-09-02T09:44:48.719Z,22.01
2022-09-02T09:47:23.341Z,22.05
2022-09-02T09:49:56.766Z,22.19
2022-09-02T09:52:29.719Z,22.33
2022-09-02T09:55:22.748Z,22.43
2022-09-02T09:57:55.442Z,22.54
2022-09-02T10:00:43.851Z,22.58
2022-09-02T10:03:57.036Z,22.51
2022-09-02T10:06:49.490Z,22.48
2022-09-02T10:09:20.312Z,22.54
2022-09-02T10:11:59.799Z,22.64
2022-09-02T10:14:55.207Z,22.73
2022-09-02T10:17:43.245Z,22.79
2022-09-02T10:20:48.479Z,22.61
2022-09-02T10:23:46.195Z,22.34
2022-09-02T10:26:44.494Z,22.18
2022-09-02T10:29:40.013Z,22.02
2022-09-02T10:32:39.064Z,21.93
2022-09-02T10:35:26.814Z,21.87
2022-09-02T10:38:31.732Z,21.84
2022-09-02T10:41:09.711Z,21.82
2022-09-02T10:44:20.529Z,21.78
2022-09-02T10:47:23.247Z,21.76
2022-09-02T10:50:30.070Z,21.76
2022-09-02T10:53:19.796Z,21.73
2022-09-02T10:56:05.747Z,21.74
2022-09-02T10:58:50.833Z,21.72
2022-09-02T11:01:30.867Z,21.69
2022-09-02T11:04:21.076Z,21.69
2022-09-02T11:07:03.215Z,21.68
2022-09-02T11:09:46.887Z,21.66
2022-09-02T11:12:28.975Z,21.72
2022-09-02T11:15:12.136Z,21.81
2022-09-02T11:17:45.855Z,21.84
2022-09-02T11:20:45.410Z,22.01
2022-09-02T11:23:38.342Z,22.26
2022-09-02T11:26:26.560Z,22.51
2022-09-02T11:29:25.518Z,22.68
2022-09-02T11:32:14.852Z,22.83
2022-09-02T11:34:52.738Z,22.77
2022-09-02T11:37:42.204Z,22.60
2022-09-02T11:40:39.183Z,22.46
2022-09-02T11:43:31.447Z,22.30
2022-09-02T11:46:21.651Z,22.12
2022-09-02T11:49:13.638Z,22.00
2022-09-02T11:51:47.301Z,21.94
2022-09-02T11:54:21.385Z,21.86
2022-09-02T11:56:58.504Z,21.80
2022-09-02T11:59:53.511Z,21.77
2022-09-02T12:02:43.700Z,21.68
2022-09-02T12:05:32.831Z,21.57
2022-09-02T12:08:13.667Z,21.44
2022-09-02T12:10:45.687Z,21.40
2022-09-02T12:13:41.503Z,21.38
2022-09-02T12:16:15.943Z,21.38
2022-09-02T12:18:55.945Z,21.38
2022-09-02T12:21:28.545Z,21.38
2022-09-02T12:23:59.318Z,21.37
2022-09-02T12:26:52.839Z,21.39
2022-09-02T12:29:35.320Z,21.47
2022-09-02T12:32:07.530Z,21.55
2022-09-02T12:34:38.177Z,21.58
2022-09-02T12:37:08.578Z,21.60
2022-09-02T12:39:42.655Z,21.55
2022-09-02T12:42:26.585Z,21.50
2022-09-02T12:45:13.957Z,21.52
2022-09-02T12:48:11.718Z,21.49
2022-09-02T12:51:00.594Z,21.41
2022-09-02T12:53:31.825Z,21.38
2022-09-02T12:56:07.352Z,21.31
2022-09-02T12:58:43.380Z,21.24
2022-09-02T13:01:32.460Z,21.19
2022-09-02T13:04:48.208Z,21.16
2022-09-02T13:07:59.115Z,21.14
2022-09-02T13:10:54.088Z,21.10
2022-09-02T13:13:49.047Z,20.98
2022-09-02T13:16:59.291Z,20.89
2022-09-02T13:20:20.801Z,20.89
2022-09-02T13:23:31.353Z,20.93
2022-09-02T13:26:45.874Z,20.99
2022-09-02T13:29:38.070Z,21.02
2022-09-02T13:32:25.139Z,21.09
2022-09-02T13:35:01.902Z,21.10
2022-09-02T13:37:46.295Z,21.06
2022-09-02T13:40:23.598Z,21.04
2022-09-02T13:42:59.732Z,21.08
2022-09-02T13:45:39.878Z,21.13
2022-09-02T13:48:28.579Z,21.15
2022-09-02T13:51:04.767Z,21.20
2022-09-02T13:53:45.586Z,21.23
2022-09-02T13:56:37.598Z,21.26
2022-09-02T13:59:08.256Z,21.26
2022-09-02T14:01:41.216Z,21.26
2022-09-02T14:04:16.061Z,21.30
2022-09-02T14:06:49.483Z,21.32
2022-09-02T14:09:33.628Z,21.34
2022-09-02T14:12:06.888Z,21.33
2022-09-02T14:14:38.158Z,21.28
2022-09-02T14:17:26.603Z,21.24
2022-09-02T14:20:20.879Z,21.22
2022-09-02T14:22:58.199Z,21.23
2022-09-02T14:25:34.219Z,21.23
2022-09-02T14:28:11.037Z,21.27
2022-09-02T14:30:43.474Z,21.32
2022-09-02T14:33:38.248Z,21.36
2022-09-02T14:36:18.217Z,21.37
2022-09-02T14:38:49.021Z,21.37
2022-09-02T14:41:19.482Z,21.35
2022-09-02T14:43:53.745Z,21.32
2022-09-02T14:46:30.044Z,21.26
2022-09-02T14:49:10.647Z,21.25
2022-09-02T14:51:53.118Z,21.26
2022-09-02T14:54:52.524Z,21.27
2022-09-02T14:57:23.040Z,21.24
2022-09-02T14:59:55.116Z,21.22
2022-09-02T15:02:30.779Z,21.20
2022-09-02T15:05:04.748Z,21.20
2022-09-02T15:07:38.751Z,21.20
2022-09-02T15:10:10.978Z,21.21
2022-09-02T15:12:48.967Z,21.21
2022-09-02T15:15:20.368Z,21.20
2022-09-02T15:17:51.017Z,21.18
2022-09-02T15:20:22.971Z,21.18
2022-09-02T15:22:55.706Z,21.18
2022-09-02T15:25:27.256Z,21.18
2022-09-02T15:28:00.118Z,21.17
2022-09-02T15:30:31.646Z,21.18
2022-09-02T15:33:05.985Z,21.18
2022-09-02T15:35:37.086Z,21.19
2022-09-02T15:38:09.129Z,21.17
2022-09-02T15:40:39.761Z,21.17
2022-09-02T15:43:10.458Z,21.18
2022-09-02T15:45:48.204Z,21.19
2022-09-02T15:48:18.507Z,21.22
2022-09-02T15:50:49.052Z,21.27
2022-09-02T15:53:24.704Z,21.26
2022-09-02T15:55:55.039Z,21.23
2022-09-02T15:58:25.434Z,21.26
2022-09-02T16:00:58.676Z,21.27
2022-09-02T16:03:31.504Z,21.27
2022-09-02T16:06:06.844Z,21.24
2022-09-02T16:08:37.495Z,21.24
2022-09-02T16:11:10.220Z,21.21
2022-09-02T16:13:41.042Z,21.23
2022-09-02T16:16:13.966Z,21.22
2022-09-02T16:18:45.267Z,21.23
2022-09-02T16:21:15.746Z,21.23
2022-09-02T16:23:46.316Z,21.24
2022-09-02T16:26:38.688Z,21.26
2022-09-02T16:29:10.916Z,21.26
2022-09-02T16:31:42.981Z,21.25
2022-09-02T16:34:16.566Z,21.23
2022-09-02T16:36:51.030Z,21.21
2022-09-02T16:39:21.705Z,21.18
2022-09-02T16:41:54.692Z,21.15
2022-09-02T16:44:27.168Z,21.15
2022-09-02T16:46:57.766Z,21.13
2022-09-02T16:49:28.039Z,21.10
2022-09-02T16:51:58.751Z,21.08
2022-09-02T16:54:31.885Z,21.05
2022-09-02T16:57:06.638Z,21.03
2022-09-02T16:59:37.440Z,21.00
2022-09-02T17:02:07.967Z,20.95
2022-09-02T17:04:41.832Z,20.91
2022-09-02T17:07:12.189Z,20.84
2022-09-02T17:09:45.497Z,20.81
2022-09-02T17:12:19.011Z,20.78
2022-09-02T17:14:49.587Z,20.75
2022-09-02T17:17:20.000Z,20.75
2022-09-02T17:19:50.655Z,20.74
2022-09-02T17:22:21.328Z,20.71
2022-09-02T17:24:53.789Z,20.70
2022-09-02T17:27:24.532Z,20.67
2022-09-02T17:29:55.271Z,20.63
2022-09-02T17:32:26.446Z,20.58
2022-09-02T17:34:57.086Z,20.53
2022-09-02T17:37:28.249Z,20.50
2022-09-02T17:39:58.690Z,20.48
2022-09-02T17:42:28.979Z,20.46
2022-09-02T17:44:59.732Z,20.44
2022-09-02T17:47:32.266Z,20.41
2022-09-02T17:50:02.804Z,20.38
2022-09-02T17:52:33.308Z,20.35
2022-09-02T17:55:04.148Z,20.33
2022-09-02T17:57:51.820Z,20.30
2022-09-02T18:00:23.958Z,20.26
2022-09-02T18:03:16.111Z,20.24
2022-09-02T18:05:57.019Z,20.19
2022-09-02T18:08:39.786Z,20.14
2022-09-02T18:11:10.410Z,20.10
2022-09-02T18:14:02.037Z,20.06
2022-09-02T18:16:51.621Z,20.03
2022-09-02T18:19:22.208Z,19.99
2022-09-02T18:21:56.168Z,19.94
2022-09-02T18:24:59.465Z,19.91
2022-09-02T18:27:41.650Z,19.87
2022-09-02T18:30:30.254Z,19.85
2022-09-02T18:33:06.934Z,19.82
2022-09-02T18:35:50.300Z,19.78
2022-09-02T18:38:41.428Z,19.72
2022-09-02T18:41:22.578Z,19.70
2022-09-02T18:44:10.268Z,19.67
2022-09-02T18:46:49.367Z,19.63
2022-09-02T18:49:22.070Z,19.61
2022-09-02T18:51:57.991Z,19.57
2022-09-02T18:54:35.990Z,19.52
2022-09-02T18:57:10.635Z,19.47
2022-09-02T18:59:43.771Z,19.43
2022-09-02T19:02:23.004Z,19.41
2022-09-02T19:04:53.752Z,19.36
2022-09-02T19:07:42.066Z,19.31
2022-09-02T19:10:14.689Z,19.27
2022-09-02T19:12:54.794Z,19.23
2022-09-02T19:15:26.848Z,19.18
2022-09-02T19:17:57.649Z,19.14
2022-09-02T19:20:28.973Z,19.11
2022-09-02T19:23:00.278Z,19.07
2022-09-02T19:25:32.440Z,19.03
2022-09-02T19:28:06.789Z,19.00
2022-09-02T19:30:39.620Z,18.97
2022-09-02T19:33:15.459Z,18.92
2022-09-02T19:35:51.338Z,18.90
2022-09-02T19:38:22.193Z,18.88
2022-09-02T19:40:52.969Z,18.86
2022-09-02T19:43:23.671Z,18.84
2022-09-02T19:45:54.244Z,18.82
2022-09-02T19:48:25.147Z,18.79
2022-09-02T19:50:56.900Z,18.75
2022-09-02T19:53:30.567Z,18.73
2022-09-02T19:56:02.294Z,18.69
2022-09-02T19:58:32.918Z,18.67
2022-09-02T20:01:04.871Z,18.66
2022-09-02T20:03:36.132Z,18.63
2022-09-02T20:06:06.503Z,18.58
2022-09-02T20:08:36.973Z,18.55
2022-09-02T20:11:08.778Z,18.51
2022-09-02T20:13:41.562Z,18.48
2022-09-02T20:16:29.470Z,18.44
2022-09-02T20:19:00.520Z,18.41
2022-09-02T20:21:42.700Z,18.38
2022-09-02T20:24:21.048Z,18.33
2022-09-02T20:27:05.808Z,18.31
2022-09-02T20:29:39.449Z,18.29
2022-09-02T20:32:48.017Z,18.25
2022-09-02T20:35:40.257Z,18.23
2022-09-02T20:38:48.707Z,18.18
2022-09-02T20:41:41.688Z,18.12
2022-09-02T20:44:34.456Z,18.11
2022-09-02T20:47:31.528Z,18.09
2022-09-02T20:50:31.589Z,18.08
2022-09-02T20:53:27.417Z,18.06
2022-09-02T20:56:12.346Z,18.01
2022-09-02T20:59:40.957Z,17.99
2022-09-02T21:02:18.872Z,17.96
2022-09-02T21:04:56.238Z,17.94
2022-09-02T21:07:33.104Z,17.93
2022-09-02T21:10:11.128Z,17.92
2022-09-02T21:13:26.329Z,17.91
2022-09-02T21:16:12.318Z,17.90
2022-09-02T21:19:19.637Z,17.89
2022-09-02T21:21:58.971Z,17.89
2022-09-02T21:24:47.566Z,17.87
2022-09-02T21:27:29.658Z,17.84
2022-09-02T21:30:10.330Z,17.84
2022-09-02T21:33:02.233Z,17.82
2022-09-02T21:35:49.603Z,17.80
2022-09-02T21:38:38.724Z,17.77
2022-09-02T21:41:39.389Z,17.75
2022-09-02T21:44:51.616Z,17.72
2022-09-02T21:47:33.356Z,17.71
2022-09-02T21:50:22.014Z,17.68
2022-09-02T21:53:19.688Z,17.66
2022-09-02T21:56:03.798Z,17.66
2022-09-02T21:58:55.734Z,17.65
2022-09-02T22:01:44.919Z,17.63
2022-09-02T22:04:33.869Z,17.62
2022-09-02T22:07:20.551Z,17.59
2022-09-02T22:10:14.310Z,17.55
2022-09-02T22:12:52.419Z,17.52
2022-09-02T22:15:37.559Z,17.49
2022-09-02T22:18:16.044Z,17.47
2022-09-02T22:20:51.570Z,17.43
2022-09-02T22:23:26.988Z,17.39
2022-09-02T22:26:04.379Z,17.35
2022-09-02T22:28:44.808Z,17.30
2022-09-02T22:31:19.931Z,17.24
2022-09-02T22:33:56.640Z,17.18
2022-09-02T22:36:50.777Z,17.12
2022-09-02T22:39:29.238Z,17.07
2022-09-02T22:42:22.090Z,17.06
2022-09-02T22:45:26.339Z,17.06
2022-09-02T22:48:23.499Z,17.03
2022-09-02T22:51:19.158Z,17.00
2022-09-02T22:53:52.367Z,16.97
2022-09-02T22:56:40.414Z,16.94
2022-09-02T22:59:49.219Z,16.94
2022-09-02T23:02:36.648Z,16.90
2022-09-02T23:05:07.069Z,16.86
2022-09-02T23:07:40.127Z,16.83
2022-09-02T23:10:24.864Z,16.80
2022-09-02T23:13:14.586Z,16.74
2022-09-02T23:16:14.652Z,16.71
2022-09-02T23:18:54.507Z,16.66
2022-09-02T23:21:29.486Z,16.61
2022-09-02T23:24:09.749Z,16.52
2022-09-02T23:26:55.318Z,16.40
2022-09-02T23:29:28.556Z,16.37
2022-09-02T23:32:01.626Z,16.38
2022-09-02T23:35:02.856Z,16.34
2022-09-02T23:37:44.368Z,16.32
2022-09-02T23:40:33.329Z,16.31
2022-09-02T23:43:04.827Z,16.32
2022-09-02T23:45:37.811Z,16.28
2022-09-02T23:48:44.116Z,16.28
2022-09-02T23:51:20.459Z,16.30
2022-09-02T23:54:52.709Z,16.28
2022-09-02T23:57:55.044Z,16.24
